PWSweather.com
Personal Weather Stations
Station Observations
KMAMEDFI2
Medfield, MA 02052

Medfield, MA 02052

Lat: 42.1900822, Lon: -71.3296889

Elevation: 138

Station Type: Rainwise WS MK-III

http://www.medfieldweather.com

High Low Average
Temperature 63.6°F17.6°C 43.9°F6.6°C 51.3°F10.7°C
Dew Point 52.7°F11.5°C 42.9°F6.1°C 47.5°F8.6°C
Winds 5.2 mph 8.4 kmh Calm Calm 2.0 mph SSE3.2 kmh SSE
Wind Gusts 9.1 mph14.6 kmh -- 4.0 mph6.4 kmh
Humidity 97% 64% 88%
Pressure 30.27 in1025.1 mb 30.16 in1021.3 mb -
Precipitation 0.03 in0.8 mm - -
Hour Temp Dew Point Humidity Winds Wind Gusts Pressure Precip Precip Rate Daily Precip Total
12:00 AM 43.8°F6.6°C 42.7°F5.9°C 96% 2.5 mph S4.0 kmh S 6.5 mph10.5 kmh 30.27 in1025.1 mb - 0.00 in0.0 mm 0.00 in0.0 mm
12:20 AM 43.8°F6.6°C 42.8°F6.0°C 96% 1.9 mph SSW3.1 kmh SSW 2.6 mph4.2 kmh 30.27 in1025.1 mb - 0.00 in0.0 mm 0.00 in0.0 mm
12:30 AM 43.8°F6.6°C 42.8°F6.0°C 96% 1.8 mph SSW2.9 kmh SSW 2.6 mph4.2 kmh 30.26 in1024.7 mb - 0.00 in0.0 mm 0.00 in0.0 mm
12:40 AM 43.8°F6.6°C 42.8°F6.0°C 96% 1.0 mph WSW1.6 kmh WSW 7.8 mph12.6 kmh 30.27 in1025.1 mb - 0.00 in0.0 mm 0.00 in0.0 mm
12:50 AM 43.9°F6.6°C 42.9°F6.1°C 96% 2.2 mph SSW3.5 kmh SSW 5.2 mph8.4 kmh 30.27 in1025.1 mb - 0.00 in0.0 mm 0.00 in0.0 mm
01:00 AM 44.0°F6.7°C 42.9°F6.1°C 96% 1.8 mph SW2.9 kmh SW 2.6 mph4.2 kmh 30.27 in1025.1 mb - 0.01 in0.3 mm 0.01 in0.3 mm
01:10 AM 44.0°F6.7°C 42.9°F6.1°C 96% 2.2 mph S3.5 kmh S 2.6 mph4.2 kmh 30.26 in1024.7 mb - 0.00 in0.0 mm 0.01 in0.3 mm
01:20 AM 44.0°F6.7°C 42.9°F6.1°C 96% 3.1 mph SE5.0 kmh SE 5.2 mph8.4 kmh 30.25 in1024.4 mb - 0.00 in0.0 mm 0.01 in0.3 mm
01:30 AM 44.0°F6.7°C 42.9°F6.1°C 96% 0.1 mph SW0.2 kmh SW 2.6 mph4.2 kmh 30.24 in1024.0 mb - 0.01 in0.3 mm 0.02 in0.5 mm
01:40 AM 44.0°F6.7°C 42.9°F6.1°C 96% 2.6 mph SSE4.2 kmh SSE 5.2 mph8.4 kmh 30.24 in1024.0 mb - 0.00 in0.0 mm 0.02 in0.5 mm
01:50 AM 43.9°F6.6°C 42.9°F6.1°C 96% 2.7 mph S4.3 kmh S 3.9 mph6.3 kmh 30.23 in1023.7 mb - 0.00 in0.0 mm 0.02 in0.5 mm
02:00 AM 44.0°F6.7°C 42.9°F6.1°C 96% 1.9 mph SW3.1 kmh SW 3.9 mph6.3 kmh 30.23 in1023.7 mb - 0.00 in0.0 mm 0.02 in0.5 mm
02:10 AM 44.1°F6.7°C 43.0°F6.1°C 96% 2.6 mph SSE4.2 kmh SSE 6.5 mph10.5 kmh 30.22 in1023.4 mb - 0.00 in0.0 mm 0.02 in0.5 mm
02:20 AM 44.1°F6.7°C 43.1°F6.2°C 96% 1.5 mph SE2.4 kmh SE 2.6 mph4.2 kmh 30.21 in1023.0 mb - 0.00 in0.0 mm 0.02 in0.5 mm
02:30 AM 44.2°F6.8°C 43.1°F6.2°C 96% 1.2 mph SW1.9 kmh SW 1.3 mph2.1 kmh 30.21 in1023.0 mb - 0.00 in0.0 mm 0.02 in0.5 mm
02:40 AM 44.2°F6.8°C 43.2°F6.2°C 96% 1.6 mph SW2.6 kmh SW 5.2 mph8.4 kmh 30.20 in1022.7 mb - 0.00 in0.0 mm 0.02 in0.5 mm
02:50 AM 44.4°F6.9°C 43.3°F6.3°C 96% 1.4 mph S2.3 kmh S 3.9 mph6.3 kmh 30.20 in1022.7 mb - 0.00 in0.0 mm 0.02 in0.5 mm
03:00 AM 44.5°F6.9°C 43.4°F6.3°C 96% 0.9 mph S1.4 kmh S 2.6 mph4.2 kmh 30.19 in1022.4 mb - 0.00 in0.0 mm 0.02 in0.5 mm
03:10 AM 44.6°F7.0°C 43.5°F6.4°C 96% 2.3 mph SW3.7 kmh SW 3.9 mph6.3 kmh 30.19 in1022.4 mb - 0.00 in0.0 mm 0.02 in0.5 mm
03:20 AM 44.7°F7.1°C 43.7°F6.5°C 96% 0.1 mph N0.2 kmh N 1.3 mph2.1 kmh 30.20 in1022.7 mb - 0.00 in0.0 mm 0.02 in0.5 mm
03:30 AM 44.7°F7.1°C 43.7°F6.5°C 96% 0.6 mph SSW1.0 kmh SSW -- 30.20 in1022.7 mb - 0.00 in0.0 mm 0.02 in0.5 mm
03:40 AM 44.8°F7.1°C 43.8°F6.6°C 96% 0.4 mph SSW0.6 kmh SSW 2.6 mph4.2 kmh 30.20 in1022.7 mb - 0.00 in0.0 mm 0.02 in0.5 mm
03:50 AM 44.8°F7.1°C 43.8°F6.6°C 96% 1.3 mph S2.1 kmh S 2.6 mph4.2 kmh 30.20 in1022.7 mb - 0.00 in0.0 mm 0.02 in0.5 mm
04:00 AM 45.1°F7.3°C 44.3°F6.8°C 97% 1.2 mph S1.9 kmh S 3.9 mph6.3 kmh 30.19 in1022.4 mb - 0.00 in0.0 mm 0.02 in0.5 mm
04:10 AM 45.2°F7.3°C 44.4°F6.9°C 97% 0.9 mph S1.4 kmh S 2.6 mph4.2 kmh 30.19 in1022.4 mb - 0.00 in0.0 mm 0.02 in0.5 mm
04:20 AM 45.3°F7.4°C 44.5°F6.9°C 97% 2.1 mph SSW3.4 kmh SSW 2.6 mph4.2 kmh 30.19 in1022.4 mb - 0.00 in0.0 mm 0.02 in0.5 mm
04:30 AM 45.3°F7.4°C 44.5°F6.9°C 97% 0.7 mph S1.1 kmh S 2.6 mph4.2 kmh 30.19 in1022.4 mb - 0.00 in0.0 mm 0.02 in0.5 mm
04:40 AM 45.4°F7.4°C 44.6°F7.0°C 97% 2.1 mph S3.4 kmh S 2.6 mph4.2 kmh 30.18 in1022.0 mb - 0.00 in0.0 mm 0.02 in0.5 mm
04:50 AM 45.5°F7.5°C 44.7°F7.1°C 97% 0.6 mph S1.0 kmh S 2.6 mph4.2 kmh 30.17 in1021.7 mb - 0.00 in0.0 mm 0.02 in0.5 mm
05:00 AM 45.7°F7.6°C 44.9°F7.2°C 97% 1.3 mph SW2.1 kmh SW 1.3 mph2.1 kmh 30.17 in1021.7 mb - 0.01 in0.3 mm 0.03 in0.8 mm
05:10 AM 45.7°F7.6°C 44.9°F7.2°C 97% 0.2 mph SW0.3 kmh SW 1.3 mph2.1 kmh 30.17 in1021.7 mb - 0.00 in0.0 mm 0.03 in0.8 mm
05:20 AM 45.8°F7.7°C 45.0°F7.2°C 97% 0.6 mph S1.0 kmh S 2.6 mph4.2 kmh 30.17 in1021.7 mb - 0.00 in0.0 mm 0.03 in0.8 mm
05:30 AM 45.9°F7.7°C 45.1°F7.3°C 97% 0.4 mph SE0.6 kmh SE 1.3 mph2.1 kmh 30.17 in1021.7 mb - 0.00 in0.0 mm 0.03 in0.8 mm
05:40 AM 46.0°F7.8°C 45.2°F7.3°C 97% 1.4 mph S2.3 kmh S 2.6 mph4.2 kmh 30.16 in1021.3 mb - 0.00 in0.0 mm 0.03 in0.8 mm
05:50 AM 46.1°F7.8°C 45.3°F7.4°C 97% Calm Calm -- 30.16 in1021.3 mb - 0.00 in0.0 mm 0.03 in0.8 mm
06:00 AM 46.1°F7.8°C 45.3°F7.4°C 97% Calm Calm -- 30.17 in1021.7 mb - 0.00 in0.0 mm 0.03 in0.8 mm
06:10 AM 46.1°F7.8°C 45.3°F7.4°C 97% 0.3 mph S0.5 kmh S 2.6 mph4.2 kmh 30.17 in1021.7 mb - 0.00 in0.0 mm 0.03 in0.8 mm
06:20 AM 46.2°F7.9°C 45.4°F7.4°C 97% 1.5 mph S2.4 kmh S 2.6 mph4.2 kmh 30.17 in1021.7 mb - 0.00 in0.0 mm 0.03 in0.8 mm
06:30 AM 46.3°F7.9°C 45.5°F7.5°C 97% 0.3 mph S0.5 kmh S -- 30.17 in1021.7 mb - 0.00 in0.0 mm 0.03 in0.8 mm
06:40 AM 46.4°F8.0°C 45.6°F7.6°C 97% 0.6 mph SW1.0 kmh SW 2.6 mph4.2 kmh 30.18 in1022.0 mb - 0.00 in0.0 mm 0.03 in0.8 mm
06:50 AM 46.6°F8.1°C 45.8°F7.7°C 97% Calm Calm -- 30.17 in1021.7 mb - 0.00 in0.0 mm 0.03 in0.8 mm
07:00 AM 46.9°F8.3°C 46.1°F7.8°C 97% Calm Calm -- 30.17 in1021.7 mb - 0.00 in0.0 mm 0.03 in0.8 mm
07:10 AM 46.8°F8.2°C 46.0°F7.8°C 97% 2.1 mph W3.4 kmh W 2.6 mph4.2 kmh 30.17 in1021.7 mb - 0.00 in0.0 mm 0.03 in0.8 mm
07:20 AM 47.0°F8.3°C 46.2°F7.9°C 97% Calm Calm -- 30.17 in1021.7 mb - 0.00 in0.0 mm 0.03 in0.8 mm
07:30 AM 47.3°F8.5°C 46.5°F8.1°C 97% 0.2 mph NW0.3 kmh NW 1.3 mph2.1 kmh 30.17 in1021.7 mb - 0.00 in0.0 mm 0.03 in0.8 mm
07:40 AM 47.4°F8.6°C 46.6°F8.1°C 97% Calm Calm -- 30.17 in1021.7 mb - 0.00 in0.0 mm 0.03 in0.8 mm
07:50 AM 47.8°F8.8°C 47.0°F8.3°C 97% 0.1 mph WNW0.2 kmh WNW 2.6 mph4.2 kmh 30.17 in1021.7 mb - 0.00 in0.0 mm 0.03 in0.8 mm
08:00 AM 48.1°F8.9°C 47.3°F8.5°C 97% 1.0 mph WNW1.6 kmh WNW 2.6 mph4.2 kmh 30.17 in1021.7 mb - 0.00 in0.0 mm 0.03 in0.8 mm
08:10 AM 48.5°F9.2°C 47.6°F8.7°C 97% Calm Calm -- 30.18 in1022.0 mb - 0.00 in0.0 mm 0.03 in0.8 mm
08:20 AM 48.7°F9.3°C 47.9°F8.8°C 97% 1.2 mph W1.9 kmh W 1.3 mph2.1 kmh 30.18 in1022.0 mb - 0.00 in0.0 mm 0.03 in0.8 mm
08:30 AM 49.0°F9.4°C 48.2°F9.0°C 97% 2.1 mph NNW3.4 kmh NNW 2.6 mph4.2 kmh 30.19 in1022.4 mb - 0.00 in0.0 mm 0.03 in0.8 mm
08:40 AM 49.1°F9.5°C 48.3°F9.1°C 97% 0.4 mph WNW0.6 kmh WNW 2.6 mph4.2 kmh 30.19 in1022.4 mb - 0.00 in0.0 mm 0.03 in0.8 mm
08:50 AM 49.5°F9.7°C 48.6°F9.2°C 97% 0.2 mph W0.3 kmh W 1.3 mph2.1 kmh 30.19 in1022.4 mb - 0.00 in0.0 mm 0.03 in0.8 mm
09:00 AM 49.7°F9.8°C 48.9°F9.4°C 97% Calm Calm 2.6 mph4.2 kmh 30.19 in1022.4 mb - 0.00 in0.0 mm 0.03 in0.8 mm
09:10 AM 50.1°F10.1°C 49.3°F9.6°C 97% 1.8 mph NW2.9 kmh NW 2.6 mph4.2 kmh 30.19 in1022.4 mb - 0.00 in0.0 mm 0.03 in0.8 mm
09:20 AM 51.1°F10.6°C 50.3°F10.2°C 97% 0.6 mph SW1.0 kmh SW 2.6 mph4.2 kmh 30.19 in1022.4 mb - 0.00 in0.0 mm 0.03 in0.8 mm
09:30 AM 51.0°F10.6°C 49.9°F9.9°C 96% 3.2 mph WSW5.1 kmh WSW 3.9 mph6.3 kmh 30.19 in1022.4 mb - 0.00 in0.0 mm 0.03 in0.8 mm
09:40 AM 51.5°F10.8°C 49.9°F9.9°C 94% 1.8 mph N2.9 kmh N 3.9 mph6.3 kmh 30.19 in1022.4 mb - 0.00 in0.0 mm 0.03 in0.8 mm
09:50 AM 52.4°F11.3°C 50.2°F10.1°C 92% 1.7 mph NW2.7 kmh NW 6.5 mph10.5 kmh 30.19 in1022.4 mb - 0.00 in0.0 mm 0.03 in0.8 mm
10:00 AM 53.0°F11.7°C 50.4°F10.2°C 91% 2.7 mph E4.3 kmh E 2.6 mph4.2 kmh 30.19 in1022.4 mb - 0.00 in0.0 mm 0.03 in0.8 mm
10:10 AM 53.6°F12.0°C 50.5°F10.3°C 89% 2.5 mph SE4.0 kmh SE 3.9 mph6.3 kmh 30.19 in1022.4 mb - 0.00 in0.0 mm 0.03 in0.8 mm
10:20 AM 54.3°F12.4°C 51.1°F10.6°C 89% 1.8 mph ENE2.9 kmh ENE 2.6 mph4.2 kmh 30.19 in1022.4 mb - 0.00 in0.0 mm 0.03 in0.8 mm
10:30 AM 54.3°F12.4°C 50.2°F10.1°C 86% 2.0 mph WNW3.2 kmh WNW 2.6 mph4.2 kmh 30.19 in1022.4 mb - 0.00 in0.0 mm 0.03 in0.8 mm
10:40 AM 54.6°F12.6°C 50.8°F10.4°C 87% 1.5 mph NNW2.4 kmh NNW 2.6 mph4.2 kmh 30.19 in1022.4 mb - 0.00 in0.0 mm 0.03 in0.8 mm
10:50 AM 56.2°F13.4°C 51.1°F10.6°C 83% 2.6 mph NE4.2 kmh NE 6.5 mph10.5 kmh 30.19 in1022.4 mb - 0.00 in0.0 mm 0.03 in0.8 mm
11:00 AM 56.1°F13.4°C 51.0°F10.6°C 83% 1.1 mph E1.8 kmh E 5.2 mph8.4 kmh 30.19 in1022.4 mb - 0.00 in0.0 mm 0.03 in0.8 mm
11:10 AM 57.2°F14.0°C 51.4°F10.8°C 81% 1.2 mph NNW1.9 kmh NNW 2.6 mph4.2 kmh 30.19 in1022.4 mb - 0.00 in0.0 mm 0.03 in0.8 mm
11:20 AM 56.8°F13.8°C 50.7°F10.4°C 80% 1.6 mph S2.6 kmh S 2.6 mph4.2 kmh 30.19 in1022.4 mb - 0.00 in0.0 mm 0.03 in0.8 mm
11:30 AM 56.6°F13.7°C 51.1°F10.6°C 82% 2.9 mph WNW4.7 kmh WNW 5.2 mph8.4 kmh 30.19 in1022.4 mb - 0.00 in0.0 mm 0.03 in0.8 mm
11:40 AM 56.9°F13.8°C 50.8°F10.4°C 80% 2.4 mph NNE3.9 kmh NNE 5.2 mph8.4 kmh 30.19 in1022.4 mb - 0.00 in0.0 mm 0.03 in0.8 mm
11:50 AM 57.7°F14.3°C 51.3°F10.7°C 79% 1.9 mph SE3.1 kmh SE 2.6 mph4.2 kmh 30.19 in1022.4 mb - 0.00 in0.0 mm 0.03 in0.8 mm
12:00 PM 57.8°F14.3°C 51.0°F10.6°C 78% 3.6 mph NNE5.8 kmh NNE 7.8 mph12.6 kmh 30.19 in1022.4 mb - 0.00 in0.0 mm 0.03 in0.8 mm
12:10 PM 58.5°F14.7°C 52.7°F11.5°C 81% 2.4 mph E3.9 kmh E 5.2 mph8.4 kmh 30.18 in1022.0 mb - 0.00 in0.0 mm 0.03 in0.8 mm
12:20 PM 59.1°F15.1°C 52.6°F11.4°C 79% 2.1 mph NNE3.4 kmh NNE 2.6 mph4.2 kmh 30.18 in1022.0 mb - 0.00 in0.0 mm 0.03 in0.8 mm
12:30 PM 59.4°F15.2°C 51.9°F11.1°C 76% 2.0 mph NW3.2 kmh NW 3.9 mph6.3 kmh 30.17 in1021.7 mb - 0.00 in0.0 mm 0.03 in0.8 mm
12:40 PM 60.3°F15.7°C 52.0°F11.1°C 74% 0.9 mph WSW1.4 kmh WSW 2.6 mph4.2 kmh 30.17 in1021.7 mb - 0.00 in0.0 mm 0.03 in0.8 mm
12:50 PM 61.1°F16.2°C 52.4°F11.3°C 73% 3.6 mph SE5.8 kmh SE 5.2 mph8.4 kmh 30.17 in1021.7 mb - 0.00 in0.0 mm 0.03 in0.8 mm
01:00 PM 60.9°F16.1°C 51.9°F11.1°C 72% 3.3 mph E5.3 kmh E 5.2 mph8.4 kmh 30.17 in1021.7 mb - 0.00 in0.0 mm 0.03 in0.8 mm
01:10 PM 62.2°F16.8°C 52.3°F11.3°C 70% 3.6 mph NE5.8 kmh NE 5.2 mph8.4 kmh 30.17 in1021.7 mb - 0.00 in0.0 mm 0.03 in0.8 mm
01:20 PM 62.8°F17.1°C 52.1°F11.2°C 68% 2.5 mph NE4.0 kmh NE 3.9 mph6.3 kmh 30.17 in1021.7 mb - 0.00 in0.0 mm 0.03 in0.8 mm
01:30 PM 63.6°F17.6°C 52.4°F11.3°C 67% 1.9 mph WNW3.1 kmh WNW 2.6 mph4.2 kmh 30.17 in1021.7 mb - 0.00 in0.0 mm 0.03 in0.8 mm
01:40 PM 63.5°F17.5°C 51.9°F11.1°C 66% 2.9 mph E4.7 kmh E 3.9 mph6.3 kmh 30.17 in1021.7 mb - 0.00 in0.0 mm 0.03 in0.8 mm
01:50 PM 62.4°F16.9°C 51.3°F10.7°C 67% 2.8 mph ESE4.5 kmh ESE 5.2 mph8.4 kmh 30.17 in1021.7 mb - 0.00 in0.0 mm 0.03 in0.8 mm
02:00 PM 62.7°F17.1°C 51.2°F10.7°C 66% 3.6 mph E5.8 kmh E 5.2 mph8.4 kmh 30.17 in1021.7 mb - 0.00 in0.0 mm 0.03 in0.8 mm
02:10 PM 62.4°F16.9°C 51.7°F10.9°C 68% 2.8 mph E4.5 kmh E 3.9 mph6.3 kmh 30.17 in1021.7 mb - 0.00 in0.0 mm 0.03 in0.8 mm
02:20 PM 62.5°F16.9°C 51.4°F10.8°C 67% 3.9 mph E6.3 kmh E 7.8 mph12.6 kmh 30.17 in1021.7 mb - 0.00 in0.0 mm 0.03 in0.8 mm
02:30 PM 62.0°F16.7°C 52.1°F11.2°C 70% 4.3 mph E6.9 kmh E 6.5 mph10.5 kmh 30.18 in1022.0 mb - 0.00 in0.0 mm 0.03 in0.8 mm
02:40 PM 63.1°F17.3°C 51.6°F10.9°C 66% 2.4 mph E3.9 kmh E 6.5 mph10.5 kmh 30.17 in1021.7 mb - 0.00 in0.0 mm 0.03 in0.8 mm
02:50 PM 63.1°F17.3°C 50.7°F10.4°C 64% 3.4 mph SE5.5 kmh SE 5.2 mph8.4 kmh 30.17 in1021.7 mb - 0.00 in0.0 mm 0.03 in0.8 mm
03:00 PM 61.9°F16.6°C 51.2°F10.7°C 68% 3.8 mph E6.1 kmh E 5.2 mph8.4 kmh 30.17 in1021.7 mb - 0.00 in0.0 mm 0.03 in0.8 mm
03:10 PM 61.0°F16.1°C 51.5°F10.8°C 71% 2.9 mph ESE4.7 kmh ESE 5.2 mph8.4 kmh 30.17 in1021.7 mb - 0.00 in0.0 mm 0.03 in0.8 mm
03:20 PM 61.0°F16.1°C 51.2°F10.7°C 70% 3.5 mph E5.6 kmh E 7.8 mph12.6 kmh 30.17 in1021.7 mb - 0.00 in0.0 mm 0.03 in0.8 mm
03:30 PM 61.8°F16.6°C 51.1°F10.6°C 68% 5.0 mph ESE8.0 kmh ESE 6.5 mph10.5 kmh 30.16 in1021.3 mb - 0.00 in0.0 mm 0.03 in0.8 mm
03:40 PM 61.1°F16.2°C 50.8°F10.4°C 69% 2.5 mph ESE4.0 kmh ESE 3.9 mph6.3 kmh 30.17 in1021.7 mb - 0.00 in0.0 mm 0.03 in0.8 mm
03:50 PM 61.6°F16.4°C 50.5°F10.3°C 67% 4.5 mph SE7.2 kmh SE 7.8 mph12.6 kmh 30.17 in1021.7 mb - 0.00 in0.0 mm 0.03 in0.8 mm
04:00 PM 61.3°F16.3°C 50.6°F10.3°C 68% 3.7 mph SE6.0 kmh SE 9.1 mph14.6 kmh 30.17 in1021.7 mb - 0.00 in0.0 mm 0.03 in0.8 mm
04:10 PM 60.8°F16.0°C 51.0°F10.6°C 70% 2.9 mph SE4.7 kmh SE 5.2 mph8.4 kmh 30.17 in1021.7 mb - 0.00 in0.0 mm 0.03 in0.8 mm
04:20 PM 59.7°F15.4°C 51.0°F10.6°C 73% 3.1 mph E5.0 kmh E 5.2 mph8.4 kmh 30.17 in1021.7 mb - 0.00 in0.0 mm 0.03 in0.8 mm
04:30 PM 58.9°F14.9°C 49.8°F9.9°C 72% 2.9 mph E4.7 kmh E 3.9 mph6.3 kmh 30.17 in1021.7 mb - 0.00 in0.0 mm 0.03 in0.8 mm
04:40 PM 58.3°F14.6°C 49.4°F9.7°C 72% 3.0 mph E4.8 kmh E 5.2 mph8.4 kmh 30.17 in1021.7 mb - 0.00 in0.0 mm 0.03 in0.8 mm
04:50 PM 57.5°F14.2°C 49.3°F9.6°C 74% 3.3 mph E5.3 kmh E 3.9 mph6.3 kmh 30.17 in1021.7 mb - 0.00 in0.0 mm 0.03 in0.8 mm
05:00 PM 57.5°F14.2°C 48.6°F9.2°C 72% 3.1 mph E5.0 kmh E 2.6 mph4.2 kmh 30.17 in1021.7 mb - 0.00 in0.0 mm 0.03 in0.8 mm
05:10 PM 57.5°F14.2°C 48.5°F9.2°C 72% 1.4 mph E2.3 kmh E 5.2 mph8.4 kmh 30.17 in1021.7 mb - 0.00 in0.0 mm 0.03 in0.8 mm
05:20 PM 56.9°F13.8°C 48.3°F9.1°C 73% 2.7 mph NNE4.3 kmh NNE 5.2 mph8.4 kmh 30.17 in1021.7 mb - 0.00 in0.0 mm 0.03 in0.8 mm
05:30 PM 56.4°F13.6°C 47.9°F8.8°C 73% 3.2 mph ENE5.1 kmh ENE 5.2 mph8.4 kmh 30.17 in1021.7 mb - 0.00 in0.0 mm 0.03 in0.8 mm
05:40 PM 55.7°F13.2°C 47.1°F8.4°C 73% 5.2 mph ESE8.4 kmh ESE 7.8 mph12.6 kmh 30.18 in1022.0 mb - 0.00 in0.0 mm 0.03 in0.8 mm
05:50 PM 54.5°F12.5°C 47.1°F8.4°C 76% 2.5 mph NE4.0 kmh NE 5.2 mph8.4 kmh 30.17 in1021.7 mb - 0.00 in0.0 mm 0.03 in0.8 mm
06:00 PM 53.7°F12.1°C 47.0°F8.3°C 78% 3.0 mph N4.8 kmh N 5.2 mph8.4 kmh 30.18 in1022.0 mb - 0.00 in0.0 mm 0.03 in0.8 mm
06:10 PM 53.2°F11.8°C 47.6°F8.7°C 81% 2.6 mph ENE4.2 kmh ENE 5.2 mph8.4 kmh 30.17 in1021.7 mb - 0.00 in0.0 mm 0.03 in0.8 mm
06:20 PM 52.4°F11.3°C 47.1°F8.4°C 82% 4.0 mph E6.4 kmh E 6.5 mph10.5 kmh 30.17 in1021.7 mb - 0.00 in0.0 mm 0.03 in0.8 mm
06:30 PM 51.7°F10.9°C 46.7°F8.2°C 83% 4.6 mph SE7.4 kmh SE 5.2 mph8.4 kmh 30.16 in1021.3 mb - 0.00 in0.0 mm 0.03 in0.8 mm
06:40 PM 51.0°F10.6°C 46.7°F8.2°C 85% 2.1 mph ESE3.4 kmh ESE 3.9 mph6.3 kmh 30.16 in1021.3 mb - 0.00 in0.0 mm 0.03 in0.8 mm
06:50 PM 50.3°F10.2°C 46.3°F7.9°C 86% 2.2 mph NE3.5 kmh NE 5.2 mph8.4 kmh 30.16 in1021.3 mb - 0.00 in0.0 mm 0.03 in0.8 mm
07:00 PM 49.9°F9.9°C 46.1°F7.8°C 87% 2.3 mph NE3.7 kmh NE 3.9 mph6.3 kmh 30.16 in1021.3 mb - 0.00 in0.0 mm 0.03 in0.8 mm
07:10 PM 49.5°F9.7°C 46.1°F7.8°C 88% 2.2 mph ESE3.5 kmh ESE 2.6 mph4.2 kmh 30.17 in1021.7 mb - 0.00 in0.0 mm 0.03 in0.8 mm
07:20 PM 49.0°F9.4°C 45.9°F7.7°C 89% 2.5 mph NE4.0 kmh NE 6.5 mph10.5 kmh 30.17 in1021.7 mb - 0.00 in0.0 mm 0.03 in0.8 mm
07:30 PM 48.4°F9.1°C 45.9°F7.7°C 91% 0.8 mph N1.3 kmh N 1.3 mph2.1 kmh 30.17 in1021.7 mb - 0.00 in0.0 mm 0.03 in0.8 mm
07:40 PM 47.9°F8.8°C 45.9°F7.7°C 93% 2.6 mph NNE4.2 kmh NNE 5.2 mph8.4 kmh 30.17 in1021.7 mb - 0.00 in0.0 mm 0.03 in0.8 mm
07:50 PM 47.8°F8.8°C 46.5°F8.1°C 95% 3.8 mph E6.1 kmh E 5.2 mph8.4 kmh 30.18 in1022.0 mb - 0.00 in0.0 mm 0.03 in0.8 mm
08:00 PM 47.6°F8.7°C 46.6°F8.1°C 96% 1.9 mph ENE3.1 kmh ENE 2.6 mph4.2 kmh 30.17 in1021.7 mb - 0.00 in0.0 mm 0.03 in0.8 mm
08:10 PM 47.4°F8.6°C 46.3°F7.9°C 96% 3.5 mph NE5.6 kmh NE 6.5 mph10.5 kmh 30.18 in1022.0 mb - 0.00 in0.0 mm 0.03 in0.8 mm
08:20 PM 47.3°F8.5°C 46.5°F8.1°C 97% 3.1 mph E5.0 kmh E 5.2 mph8.4 kmh 30.18 in1022.0 mb - 0.00 in0.0 mm 0.03 in0.8 mm
08:30 PM 47.0°F8.3°C 46.2°F7.9°C 97% 1.3 mph N2.1 kmh N 2.6 mph4.2 kmh 30.17 in1021.7 mb - 0.00 in0.0 mm 0.03 in0.8 mm
08:40 PM 46.9°F8.3°C 46.1°F7.8°C 97% 2.2 mph N3.5 kmh N 2.6 mph4.2 kmh 30.17 in1021.7 mb - 0.00 in0.0 mm 0.03 in0.8 mm
08:50 PM 46.9°F8.3°C 46.1°F7.8°C 97% 1.6 mph ESE2.6 kmh ESE 2.6 mph4.2 kmh 30.18 in1022.0 mb - 0.00 in0.0 mm 0.03 in0.8 mm
09:00 PM 46.9°F8.3°C 46.1°F7.8°C 97% 3.4 mph NNW5.5 kmh NNW 7.8 mph12.6 kmh 30.18 in1022.0 mb - 0.00 in0.0 mm 0.03 in0.8 mm
09:20 PM 47.0°F8.3°C 46.2°F7.9°C 97% 2.2 mph ESE3.5 kmh ESE 2.6 mph4.2 kmh 30.18 in1022.0 mb - 0.00 in0.0 mm 0.03 in0.8 mm
09:40 PM 46.9°F8.3°C 46.1°F7.8°C 97% 2.5 mph ESE4.0 kmh ESE 2.6 mph4.2 kmh 30.18 in1022.0 mb - 0.00 in0.0 mm 0.03 in0.8 mm
10:00 PM 46.8°F8.2°C 46.0°F7.8°C 97% 2.3 mph E3.7 kmh E 9.1 mph14.6 kmh 30.17 in1021.7 mb - 0.00 in0.0 mm 0.03 in0.8 mm
10:20 PM 46.8°F8.2°C 46.0°F7.8°C 97% 1.5 mph NNE2.4 kmh NNE 2.6 mph4.2 kmh 30.17 in1021.7 mb - 0.00 in0.0 mm 0.03 in0.8 mm
10:30 PM 46.8°F8.2°C 46.0°F7.8°C 97% 2.6 mph ESE4.2 kmh ESE 5.2 mph8.4 kmh 30.17 in1021.7 mb - 0.00 in0.0 mm 0.03 in0.8 mm
10:50 PM 46.6°F8.1°C 45.8°F7.7°C 97% 2.6 mph ENE4.2 kmh ENE 2.6 mph4.2 kmh 30.17 in1021.7 mb - 0.00 in0.0 mm 0.03 in0.8 mm
11:00 PM 46.5°F8.1°C 45.7°F7.6°C 97% 2.1 mph ENE3.4 kmh ENE 5.2 mph8.4 kmh 30.17 in1021.7 mb - 0.00 in0.0 mm 0.03 in0.8 mm
11:10 PM 46.6°F8.1°C 45.8°F7.7°C 97% 1.8 mph NW2.9 kmh NW 5.2 mph8.4 kmh 30.17 in1021.7 mb - 0.00 in0.0 mm 0.03 in0.8 mm
11:20 PM 46.5°F8.1°C 45.7°F7.6°C 97% 1.5 mph NNE2.4 kmh NNE 7.8 mph12.6 kmh 30.17 in1021.7 mb - 0.00 in0.0 mm 0.03 in0.8 mm
11:30 PM 46.4°F8.0°C 45.6°F7.6°C 97% 1.3 mph E2.1 kmh E 3.9 mph6.3 kmh 30.16 in1021.3 mb - 0.00 in0.0 mm 0.03 in0.8 mm